sensor_id;sensor_type;location;lat;lon;timestamp;P1;durP1;ratioP1;P2;durP2;ratioP2
75285;SDS011;63879;46.064;14.532;2022-10-18T07:00:53;93.28;;;25.10;;
75285;SDS011;63879;46.064;14.532;2022-10-18T07:03:19;59.08;;;25.10;;
75285;SDS011;63879;46.064;14.532;2022-10-18T07:05:45;69.07;;;26.50;;
75285;SDS011;63879;46.064;14.532;2022-10-18T07:08:11;129.73;;;26.60;;
75285;SDS011;63879;46.064;14.532;2022-10-18T07:10:37;67.37;;;23.77;;
75285;SDS011;63879;46.064;14.532;2022-10-18T07:13:02;67.53;;;25.90;;
75285;SDS011;63879;46.064;14.532;2022-10-18T07:15:27;147.75;;;30.67;;
75285;SDS011;63879;46.064;14.532;2022-10-18T07:17:53;76.07;;;25.00;;
75285;SDS011;63879;46.064;14.532;2022-10-18T07:20:18;107.28;;;26.85;;
75285;SDS011;63879;46.064;14.532;2022-10-18T07:22:44;50.22;;;22.75;;
75285;SDS011;63879;46.064;14.532;2022-10-18T07:25:09;65.88;;;23.30;;
75285;SDS011;63879;46.064;14.532;2022-10-18T07:27:35;52.35;;;21.77;;
75285;SDS011;63879;46.064;14.532;2022-10-18T07:30:04;51.47;;;22.13;;
75285;SDS011;63879;46.064;14.532;2022-10-18T07:32:30;39.60;;;19.13;;
75285;SDS011;63879;46.064;14.532;2022-10-18T07:34:55;43.57;;;21.77;;
75285;SDS011;63879;46.064;14.532;2022-10-18T07:37:21;44.67;;;23.50;;
75285;SDS011;63879;46.064;14.532;2022-10-18T07:39:46;53.23;;;22.10;;
75285;SDS011;63879;46.064;14.532;2022-10-18T07:42:12;50.50;;;21.37;;
75285;SDS011;63879;46.064;14.532;2022-10-18T07:44:37;56.37;;;23.33;;
75285;SDS011;63879;46.064;14.532;2022-10-18T07:47:03;45.50;;;21.55;;
75285;SDS011;63879;46.064;14.532;2022-10-18T07:49:28;85.05;;;26.17;;
75285;SDS011;63879;46.064;14.532;2022-10-18T07:51:54;79.47;;;23.57;;
75285;SDS011;63879;46.064;14.532;2022-10-18T07:54:19;82.05;;;26.63;;
75285;SDS011;63879;46.064;14.532;2022-10-18T07:56:47;55.65;;;23.48;;
75285;SDS011;63879;46.064;14.532;2022-10-18T07:59:12;62.60;;;25.13;;
75285;SDS011;63879;46.064;14.532;2022-10-18T08:01:38;45.53;;;23.17;;
75285;SDS011;63879;46.064;14.532;2022-10-18T08:04:03;68.28;;;25.55;;
75285;SDS011;63879;46.064;14.532;2022-10-18T08:06:29;57.58;;;24.63;;
75285;SDS011;63879;46.064;14.532;2022-10-18T08:08:55;67.75;;;23.90;;
75285;SDS011;63879;46.064;14.532;2022-10-18T08:11:21;54.97;;;22.92;;
75285;SDS011;63879;46.064;14.532;2022-10-18T08:13:48;51.35;;;23.77;;
75285;SDS011;63879;46.064;14.532;2022-10-18T08:16:15;50.92;;;25.05;;
75285;SDS011;63879;46.064;14.532;2022-10-18T08:18:42;44.35;;;23.15;;
75285;SDS011;63879;46.064;14.532;2022-10-18T08:21:08;47.13;;;24.42;;
75285;SDS011;63879;46.064;14.532;2022-10-18T08:23:35;50.15;;;24.52;;
75285;SDS011;63879;46.064;14.532;2022-10-18T08:26:01;43.45;;;22.50;;
75285;SDS011;63879;46.064;14.532;2022-10-18T08:28:28;41.17;;;20.58;;
75285;SDS011;63879;46.064;14.532;2022-10-18T08:30:53;47.90;;;23.00;;
75285;SDS011;63879;46.064;14.532;2022-10-18T08:33:19;47.67;;;22.07;;
75285;SDS011;63879;46.064;14.532;2022-10-18T08:35:53;39.17;;;20.27;;
75285;SDS011;63879;46.064;14.532;2022-10-18T08:38:22;50.95;;;23.90;;
75285;SDS011;63879;46.064;14.532;2022-10-18T08:40:48;49.33;;;23.55;;
75285;SDS011;63879;46.064;14.532;2022-10-18T08:46:00;47.33;;;25.27;;
75285;SDS011;63879;46.064;14.532;2022-10-18T08:48:36;49.13;;;23.37;;
75285;SDS011;63879;46.064;14.532;2022-10-18T08:51:05;43.60;;;22.08;;
75285;SDS011;63879;46.064;14.532;2022-10-18T08:53:40;49.03;;;23.65;;
75285;SDS011;63879;46.064;14.532;2022-10-18T08:56:14;49.47;;;24.30;;
75285;SDS011;63879;46.064;14.532;2022-10-18T08:58:45;48.22;;;23.98;;
75285;SDS011;63879;46.064;14.532;2022-10-18T09:01:24;48.65;;;23.73;;
75285;SDS011;63879;46.064;14.532;2022-10-18T09:06:33;44.90;;;23.70;;
75285;SDS011;63879;46.064;14.532;2022-10-18T09:09:07;53.80;;;27.08;;
75285;SDS011;63879;46.064;14.532;2022-10-18T09:22:12;53.47;;;28.33;;
75285;SDS011;63879;46.064;14.532;2022-10-18T09:24:44;48.35;;;27.40;;
75285;SDS011;63879;46.064;14.532;2022-10-18T09:27:16;48.47;;;25.27;;
75285;SDS011;63879;46.064;14.532;2022-10-18T09:32:46;50.50;;;25.08;;
75285;SDS011;63879;46.064;14.532;2022-10-18T09:35:18;52.47;;;27.88;;
75285;SDS011;63879;46.064;14.532;2022-10-18T09:37:45;49.75;;;27.95;;
75285;SDS011;63879;46.064;14.532;2022-10-18T09:40:14;53.42;;;28.30;;
75285;SDS011;63879;46.064;14.532;2022-10-18T09:42:46;52.75;;;28.08;;
75285;SDS011;63879;46.064;14.532;2022-10-18T09:45:23;49.95;;;27.65;;
75285;SDS011;63879;46.064;14.532;2022-10-18T09:47:55;66.75;;;34.15;;
75285;SDS011;63879;46.064;14.532;2022-10-18T09:56:01;54.35;;;28.05;;
75285;SDS011;63879;46.064;14.532;2022-10-18T09:58:40;57.03;;;31.30;;
75285;SDS011;63879;46.064;14.532;2022-10-18T10:01:08;58.10;;;32.47;;
75285;SDS011;63879;46.064;14.532;2022-10-18T10:03:35;55.50;;;31.38;;
75285;SDS011;63879;46.064;14.532;2022-10-18T10:06:02;62.65;;;33.00;;
75285;SDS011;63879;46.064;14.532;2022-10-18T10:08:43;52.00;;;30.23;;
75285;SDS011;63879;46.064;14.532;2022-10-18T10:11:28;59.60;;;30.92;;
75285;SDS011;63879;46.064;14.532;2022-10-18T10:14:13;56.38;;;30.02;;
75285;SDS011;63879;46.064;14.532;2022-10-18T10:16:46;60.45;;;31.00;;
75285;SDS011;63879;46.064;14.532;2022-10-18T10:19:15;54.88;;;30.50;;
75285;SDS011;63879;46.064;14.532;2022-10-18T10:24:49;70.82;;;35.40;;
75285;SDS011;63879;46.064;14.532;2022-10-18T10:27:19;78.80;;;37.72;;
75285;SDS011;63879;46.064;14.532;2022-10-18T10:29:49;83.28;;;39.10;;
75285;SDS011;63879;46.064;14.532;2022-10-18T10:32:18;81.05;;;40.45;;
75285;SDS011;63879;46.064;14.532;2022-10-18T10:42:54;75.30;;;37.67;;
75285;SDS011;63879;46.064;14.532;2022-10-18T10:45:21;79.60;;;40.55;;
75285;SDS011;63879;46.064;14.532;2022-10-18T10:47:48;83.65;;;39.03;;
75285;SDS011;63879;46.064;14.532;2022-10-18T10:50:21;76.90;;;37.72;;
75285;SDS011;63879;46.064;14.532;2022-10-18T10:52:48;72.45;;;40.60;;
75285;SDS011;63879;46.064;14.532;2022-10-18T10:55:18;73.28;;;38.60;;
75285;SDS011;63879;46.064;14.532;2022-10-18T10:57:47;66.40;;;36.92;;
75285;SDS011;63879;46.064;14.532;2022-10-18T11:03:08;66.20;;;37.90;;
75285;SDS011;63879;46.064;14.532;2022-10-18T11:05:44;63.63;;;36.53;;
75285;SDS011;63879;46.064;14.532;2022-10-18T11:08:15;64.70;;;36.17;;
75285;SDS011;63879;46.064;14.532;2022-10-18T11:13:47;65.38;;;35.25;;
75285;SDS011;63879;46.064;14.532;2022-10-18T11:16:16;49.00;;;30.77;;
75285;SDS011;63879;46.064;14.532;2022-10-18T11:18:47;47.45;;;30.67;;
75285;SDS011;63879;46.064;14.532;2022-10-18T11:21:18;50.42;;;31.30;;
75285;SDS011;63879;46.064;14.532;2022-10-18T11:23:46;58.13;;;32.22;;
75285;SDS011;63879;46.064;14.532;2022-10-18T11:33:45;60.00;;;33.05;;
75285;SDS011;63879;46.064;14.532;2022-10-18T11:42:20;44.53;;;28.30;;
75285;SDS011;63879;46.064;14.532;2022-10-18T11:45:17;43.25;;;27.75;;
75285;SDS011;63879;46.064;14.532;2022-10-18T11:58:48;47.78;;;30.02;;
75285;SDS011;63879;46.064;14.532;2022-10-18T12:04:16;52.22;;;30.60;;
75285;SDS011;63879;46.064;14.532;2022-10-18T12:06:48;45.35;;;27.98;;
75285;SDS011;63879;46.064;14.532;2022-10-18T12:09:22;44.85;;;27.58;;
75285;SDS011;63879;46.064;14.532;2022-10-18T12:11:56;48.70;;;29.95;;
75285;SDS011;63879;46.064;14.532;2022-10-18T12:14:37;47.17;;;31.88;;
75285;SDS011;63879;46.064;14.532;2022-10-18T12:17:08;47.05;;;29.23;;
75285;SDS011;63879;46.064;14.532;2022-10-18T12:19:47;44.05;;;26.70;;
75285;SDS011;63879;46.064;14.532;2022-10-18T12:24:46;55.15;;;32.45;;
75285;SDS011;63879;46.064;14.532;2022-10-18T12:27:12;58.50;;;30.57;;
75285;SDS011;63879;46.064;14.532;2022-10-18T12:29:41;46.75;;;29.20;;
75285;SDS011;63879;46.064;14.532;2022-10-18T12:32:12;52.03;;;31.15;;
75285;SDS011;63879;46.064;14.532;2022-10-18T12:34:46;49.88;;;30.00;;
75285;SDS011;63879;46.064;14.532;2022-10-18T12:39:50;44.78;;;29.08;;
75285;SDS011;63879;46.064;14.532;2022-10-18T12:42:22;40.80;;;26.85;;
75285;SDS011;63879;46.064;14.532;2022-10-18T12:44:58;48.35;;;29.35;;
75285;SDS011;63879;46.064;14.532;2022-10-18T12:47:25;40.10;;;27.40;;
75285;SDS011;63879;46.064;14.532;2022-10-18T12:50:03;42.38;;;27.23;;
75285;SDS011;63879;46.064;14.532;2022-10-18T12:52:30;47.83;;;27.63;;
75285;SDS011;63879;46.064;14.532;2022-10-18T12:55:06;49.60;;;29.90;;
75285;SDS011;63879;46.064;14.532;2022-10-18T13:08:32;40.63;;;26.88;;
75285;SDS011;63879;46.064;14.532;2022-10-18T13:13:49;42.88;;;24.92;;
75285;SDS011;63879;46.064;14.532;2022-10-18T13:16:41;42.35;;;29.05;;
75285;SDS011;63879;46.064;14.532;2022-10-18T13:19:17;41.30;;;27.58;;
75285;SDS011;63879;46.064;14.532;2022-10-18T13:21:47;32.30;;;22.63;;
75285;SDS011;63879;46.064;14.532;2022-10-18T13:27:17;43.50;;;25.27;;
75285;SDS011;63879;46.064;14.532;2022-10-18T13:34:56;35.22;;;21.85;;
75285;SDS011;63879;46.064;14.532;2022-10-18T13:37:22;34.80;;;21.13;;
75285;SDS011;63879;46.064;14.532;2022-10-18T13:39:49;38.10;;;21.05;;
75285;SDS011;63879;46.064;14.532;2022-10-18T13:42:17;35.60;;;22.63;;
75285;SDS011;63879;46.064;14.532;2022-10-18T13:44:44;37.50;;;21.52;;
75285;SDS011;63879;46.064;14.532;2022-10-18T13:52:56;42.90;;;22.38;;
75285;SDS011;63879;46.064;14.532;2022-10-18T13:55:44;38.75;;;23.65;;
75285;SDS011;63879;46.064;14.532;2022-10-18T13:58:26;38.67;;;23.67;;
75285;SDS011;63879;46.064;14.532;2022-10-18T14:06:32;37.90;;;23.35;;
75285;SDS011;63879;46.064;14.532;2022-10-18T14:11:45;34.08;;;20.40;;
75285;SDS011;63879;46.064;14.532;2022-10-18T14:14:16;33.00;;;20.65;;
75285;SDS011;63879;46.064;14.532;2022-10-18T14:17:06;27.38;;;18.58;;
75285;SDS011;63879;46.064;14.532;2022-10-18T14:22:38;29.55;;;18.75;;
75285;SDS011;63879;46.064;14.532;2022-10-18T14:33:34;16.45;;;11.80;;
75285;SDS011;63879;46.064;14.532;2022-10-18T14:36:03;17.95;;;10.80;;
75285;SDS011;63879;46.064;14.532;2022-10-18T14:38:31;20.17;;;11.75;;
75285;SDS011;63879;46.064;14.532;2022-10-18T14:41:03;17.30;;;12.15;;
75285;SDS011;63879;46.064;14.532;2022-10-18T14:43:30;16.10;;;10.07;;
75285;SDS011;63879;46.064;14.532;2022-10-18T14:45:55;17.13;;;10.45;;
75285;SDS011;63879;46.064;14.532;2022-10-18T14:48:32;20.92;;;12.20;;
75285;SDS011;63879;46.064;14.532;2022-10-18T14:50:57;20.27;;;13.27;;
75285;SDS011;63879;46.064;14.532;2022-10-18T14:53:24;20.05;;;13.68;;
75285;SDS011;63879;46.064;14.532;2022-10-18T14:55:59;22.88;;;14.57;;
75285;SDS011;63879;46.064;14.532;2022-10-18T14:58:25;25.08;;;14.45;;
75285;SDS011;63879;46.064;14.532;2022-10-18T15:00:51;22.75;;;15.98;;
75285;SDS011;63879;46.064;14.532;2022-10-18T15:03:16;24.60;;;14.90;;
75285;SDS011;63879;46.064;14.532;2022-10-18T15:05:55;23.52;;;15.20;;
75285;SDS011;63879;46.064;14.532;2022-10-18T15:08:24;23.08;;;14.88;;
75285;SDS011;63879;46.064;14.532;2022-10-18T15:10:51;24.70;;;15.10;;
75285;SDS011;63879;46.064;14.532;2022-10-18T15:13:17;26.42;;;13.57;;
75285;SDS011;63879;46.064;14.532;2022-10-18T15:15:43;21.25;;;14.13;;
75285;SDS011;63879;46.064;14.532;2022-10-18T15:18:19;21.10;;;13.90;;
75285;SDS011;63879;46.064;14.532;2022-10-18T15:20:45;23.67;;;15.73;;
75285;SDS011;63879;46.064;14.532;2022-10-18T15:23:31;21.38;;;14.50;;
75285;SDS011;63879;46.064;14.532;2022-10-18T15:26:01;20.83;;;14.33;;
75285;SDS011;63879;46.064;14.532;2022-10-18T15:28:30;21.23;;;14.68;;
75285;SDS011;63879;46.064;14.532;2022-10-18T15:30:59;21.33;;;14.00;;
75285;SDS011;63879;46.064;14.532;2022-10-18T15:33:26;23.40;;;14.50;;
75285;SDS011;63879;46.064;14.532;2022-10-18T15:35:52;20.70;;;14.75;;
75285;SDS011;63879;46.064;14.532;2022-10-18T15:38:25;19.58;;;13.98;;
75285;SDS011;63879;46.064;14.532;2022-10-18T15:40:52;24.90;;;15.00;;
75285;SDS011;63879;46.064;14.532;2022-10-18T15:48:25;19.60;;;14.63;;
75285;SDS011;63879;46.064;14.532;2022-10-18T15:50:59;20.27;;;14.48;;
75285;SDS011;63879;46.064;14.532;2022-10-18T15:58:51;25.65;;;17.02;;
75285;SDS011;63879;46.064;14.532;2022-10-18T16:03:46;23.77;;;15.80;;
75285;SDS011;63879;46.064;14.532;2022-10-18T16:06:12;27.67;;;18.38;;
75285;SDS011;63879;46.064;14.532;2022-10-18T16:08:39;24.23;;;17.77;;
75285;SDS011;63879;46.064;14.532;2022-10-18T16:11:13;24.98;;;17.63;;
75285;SDS011;63879;46.064;14.532;2022-10-18T16:13:39;29.75;;;19.20;;
75285;SDS011;63879;46.064;14.532;2022-10-18T16:16:05;23.27;;;18.10;;
75285;SDS011;63879;46.064;14.532;2022-10-18T16:18:31;29.67;;;17.55;;
75285;SDS011;63879;46.064;14.532;2022-10-18T16:20:57;26.33;;;18.80;;
75285;SDS011;63879;46.064;14.532;2022-10-18T16:23:24;31.83;;;19.20;;
75285;SDS011;63879;46.064;14.532;2022-10-18T16:25:51;30.50;;;19.20;;
75285;SDS011;63879;46.064;14.532;2022-10-18T16:28:17;31.15;;;20.15;;
75285;SDS011;63879;46.064;14.532;2022-10-18T16:30:46;28.98;;;18.45;;
75285;SDS011;63879;46.064;14.532;2022-10-18T16:33:17;26.10;;;18.27;;
75285;SDS011;63879;46.064;14.532;2022-10-18T16:35:42;37.93;;;25.13;;
75285;SDS011;63879;46.064;14.532;2022-10-18T16:38:11;30.40;;;20.10;;
75285;SDS011;63879;46.064;14.532;2022-10-18T16:40:45;31.02;;;21.02;;
75285;SDS011;63879;46.064;14.532;2022-10-18T16:43:10;31.90;;;21.77;;
75285;SDS011;63879;46.064;14.532;2022-10-18T16:45:35;30.90;;;20.73;;
75285;SDS011;63879;46.064;14.532;2022-10-18T16:48:01;28.53;;;19.27;;
75285;SDS011;63879;46.064;14.532;2022-10-18T16:50:26;34.63;;;20.43;;
75285;SDS011;63879;46.064;14.532;2022-10-18T16:52:51;34.90;;;22.87;;
75285;SDS011;63879;46.064;14.532;2022-10-18T16:55:17;44.83;;;27.53;;
75285;SDS011;63879;46.064;14.532;2022-10-18T16:57:48;40.20;;;26.15;;
75285;SDS011;63879;46.064;14.532;2022-10-18T17:00:19;34.72;;;21.65;;
75285;SDS011;63879;46.064;14.532;2022-10-18T17:02:48;38.10;;;24.55;;
75285;SDS011;63879;46.064;14.532;2022-10-18T17:05:17;35.85;;;23.95;;
75285;SDS011;63879;46.064;14.532;2022-10-18T17:07:42;35.58;;;22.92;;
75285;SDS011;63879;46.064;14.532;2022-10-18T17:10:15;38.97;;;25.63;;
75285;SDS011;63879;46.064;14.532;2022-10-18T17:12:42;41.60;;;24.70;;
75285;SDS011;63879;46.064;14.532;2022-10-18T17:15:08;36.05;;;23.25;;
75285;SDS011;63879;46.064;14.532;2022-10-18T17:17:36;34.30;;;22.77;;
75285;SDS011;63879;46.064;14.532;2022-10-18T17:20:02;34.85;;;22.67;;
75285;SDS011;63879;46.064;14.532;2022-10-18T17:22:29;39.35;;;23.92;;
75285;SDS011;63879;46.064;14.532;2022-10-18T17:24:55;36.42;;;24.33;;
75285;SDS011;63879;46.064;14.532;2022-10-18T17:27:21;36.45;;;23.27;;
75285;SDS011;63879;46.064;14.532;2022-10-18T17:29:46;34.60;;;24.15;;
75285;SDS011;63879;46.064;14.532;2022-10-18T17:32:11;33.45;;;23.65;;
75285;SDS011;63879;46.064;14.532;2022-10-18T17:34:37;30.93;;;21.83;;
75285;SDS011;63879;46.064;14.532;2022-10-18T17:37:02;37.90;;;24.47;;
75285;SDS011;63879;46.064;14.532;2022-10-18T17:39:28;32.50;;;21.98;;
75285;SDS011;63879;46.064;14.532;2022-10-18T17:41:54;39.90;;;25.75;;
75285;SDS011;63879;46.064;14.532;2022-10-18T17:44:20;33.80;;;23.08;;
75285;SDS011;63879;46.064;14.532;2022-10-18T17:46:46;32.33;;;23.33;;
75285;SDS011;63879;46.064;14.532;2022-10-18T17:49:11;43.28;;;27.05;;
75285;SDS011;63879;46.064;14.532;2022-10-18T17:51:41;35.22;;;22.88;;
75285;SDS011;63879;46.064;14.532;2022-10-18T17:54:07;40.47;;;26.05;;
75285;SDS011;63879;46.064;14.532;2022-10-18T17:56:33;38.58;;;23.75;;
75285;SDS011;63879;46.064;14.532;2022-10-18T17:58:59;41.78;;;25.92;;
75285;SDS011;63879;46.064;14.532;2022-10-18T18:01:24;50.78;;;32.80;;
75285;SDS011;63879;46.064;14.532;2022-10-18T18:03:56;39.70;;;26.08;;
75285;SDS011;63879;46.064;14.532;2022-10-18T18:06:24;35.42;;;24.77;;
75285;SDS011;63879;46.064;14.532;2022-10-18T18:08:55;46.78;;;29.70;;
75285;SDS011;63879;46.064;14.532;2022-10-18T18:11:21;44.22;;;25.70;;
75285;SDS011;63879;46.064;14.532;2022-10-18T18:13:46;39.58;;;25.45;;
75285;SDS011;63879;46.064;14.532;2022-10-18T18:16:21;40.58;;;25.38;;
75285;SDS011;63879;46.064;14.532;2022-10-18T18:18:49;40.78;;;24.60;;
75285;SDS011;63879;46.064;14.532;2022-10-18T18:21:15;33.67;;;22.88;;
75285;SDS011;63879;46.064;14.532;2022-10-18T18:23:41;39.63;;;23.85;;
75285;SDS011;63879;46.064;14.532;2022-10-18T18:26:07;36.65;;;23.55;;
75285;SDS011;63879;46.064;14.532;2022-10-18T18:28:33;38.60;;;25.08;;
75285;SDS011;63879;46.064;14.532;2022-10-18T18:31:10;39.30;;;26.02;;
75285;SDS011;63879;46.064;14.532;2022-10-18T18:33:38;30.88;;;21.60;;
75285;SDS011;63879;46.064;14.532;2022-10-18T18:36:04;40.75;;;23.77;;
75285;SDS011;63879;46.064;14.532;2022-10-18T18:38:31;37.78;;;23.85;;
75285;SDS011;63879;46.064;14.532;2022-10-18T18:41:10;34.58;;;23.08;;
75285;SDS011;63879;46.064;14.532;2022-10-18T18:43:40;34.63;;;22.30;;
75285;SDS011;63879;46.064;14.532;2022-10-18T18:46:08;31.70;;;23.23;;
75285;SDS011;63879;46.064;14.532;2022-10-18T18:48:34;33.60;;;23.13;;
75285;SDS011;63879;46.064;14.532;2022-10-18T18:51:03;32.45;;;22.10;;
75285;SDS011;63879;46.064;14.532;2022-10-18T18:53:30;34.42;;;23.02;;
75285;SDS011;63879;46.064;14.532;2022-10-18T18:56:02;39.30;;;25.73;;
75285;SDS011;63879;46.064;14.532;2022-10-18T18:58:29;33.97;;;22.42;;
75285;SDS011;63879;46.064;14.532;2022-10-18T19:00:55;32.25;;;21.67;;
75285;SDS011;63879;46.064;14.532;2022-10-18T19:03:20;34.93;;;23.13;;
75285;SDS011;63879;46.064;14.532;2022-10-18T19:05:46;37.20;;;23.70;;
75285;SDS011;63879;46.064;14.532;2022-10-18T19:08:11;39.33;;;21.70;;
75285;SDS011;63879;46.064;14.532;2022-10-18T19:10:37;35.97;;;24.35;;
75285;SDS011;63879;46.064;14.532;2022-10-18T19:13:02;39.97;;;24.88;;
75285;SDS011;63879;46.064;14.532;2022-10-18T19:15:27;36.00;;;21.92;;
75285;SDS011;63879;46.064;14.532;2022-10-18T19:17:53;37.38;;;23.02;;
75285;SDS011;63879;46.064;14.532;2022-10-18T19:20:19;34.15;;;22.40;;
75285;SDS011;63879;46.064;14.532;2022-10-18T19:22:45;40.27;;;24.73;;
75285;SDS011;63879;46.064;14.532;2022-10-18T19:25:10;31.02;;;22.05;;
75285;SDS011;63879;46.064;14.532;2022-10-18T19:27:36;36.35;;;23.75;;
75285;SDS011;63879;46.064;14.532;2022-10-18T19:30:02;41.55;;;27.48;;
75285;SDS011;63879;46.064;14.532;2022-10-18T19:32:28;41.42;;;23.95;;
75285;SDS011;63879;46.064;14.532;2022-10-18T19:34:54;35.97;;;24.03;;
75285;SDS011;63879;46.064;14.532;2022-10-18T19:37:19;34.05;;;23.70;;
75285;SDS011;63879;46.064;14.532;2022-10-18T19:39:44;36.88;;;23.38;;
75285;SDS011;63879;46.064;14.532;2022-10-18T19:42:13;34.88;;;21.83;;
75285;SDS011;63879;46.064;14.532;2022-10-18T19:44:41;35.97;;;22.60;;
75285;SDS011;63879;46.064;14.532;2022-10-18T19:47:13;36.60;;;23.20;;
75285;SDS011;63879;46.064;14.532;2022-10-18T19:49:39;36.42;;;23.95;;
75285;SDS011;63879;46.064;14.532;2022-10-18T19:52:06;35.22;;;21.33;;
75285;SDS011;63879;46.064;14.532;2022-10-18T19:54:32;36.63;;;20.77;;
75285;SDS011;63879;46.064;14.532;2022-10-18T19:56:57;31.43;;;21.40;;
75285;SDS011;63879;46.064;14.532;2022-10-18T19:59:23;32.13;;;20.55;;
75285;SDS011;63879;46.064;14.532;2022-10-18T20:01:48;35.55;;;23.00;;
75285;SDS011;63879;46.064;14.532;2022-10-18T20:04:14;34.38;;;20.63;;
75285;SDS011;63879;46.064;14.532;2022-10-18T20:06:40;36.22;;;22.70;;
75285;SDS011;63879;46.064;14.532;2022-10-18T20:09:06;31.60;;;19.67;;
75285;SDS011;63879;46.064;14.532;2022-10-18T20:11:32;30.83;;;21.63;;
75285;SDS011;63879;46.064;14.532;2022-10-18T20:13:58;33.83;;;22.05;;
75285;SDS011;63879;46.064;14.532;2022-10-18T20:16:24;32.72;;;20.23;;
75285;SDS011;63879;46.064;14.532;2022-10-18T20:18:58;35.42;;;23.23;;
75285;SDS011;63879;46.064;14.532;2022-10-18T20:21:25;37.28;;;23.52;;
75285;SDS011;63879;46.064;14.532;2022-10-18T20:23:52;32.55;;;22.40;;
75285;SDS011;63879;46.064;14.532;2022-10-18T20:26:18;39.42;;;24.23;;
75285;SDS011;63879;46.064;14.532;2022-10-18T20:28:45;45.80;;;26.00;;
75285;SDS011;63879;46.064;14.532;2022-10-18T20:31:15;40.30;;;24.70;;
75285;SDS011;63879;46.064;14.532;2022-10-18T20:33:42;35.00;;;22.15;;
75285;SDS011;63879;46.064;14.532;2022-10-18T20:38:35;35.65;;;23.38;;
75285;SDS011;63879;46.064;14.532;2022-10-18T20:41:06;30.98;;;20.38;;
75285;SDS011;63879;46.064;14.532;2022-10-18T20:43:32;36.13;;;21.63;;
75285;SDS011;63879;46.064;14.532;2022-10-18T20:45:58;37.30;;;23.60;;
75285;SDS011;63879;46.064;14.532;2022-10-18T20:48:24;36.90;;;24.23;;
75285;SDS011;63879;46.064;14.532;2022-10-18T20:50:49;32.25;;;20.52;;
75285;SDS011;63879;46.064;14.532;2022-10-18T20:53:15;29.80;;;20.03;;
75285;SDS011;63879;46.064;14.532;2022-10-18T20:55:40;32.40;;;20.55;;
75285;SDS011;63879;46.064;14.532;2022-10-18T20:58:07;34.13;;;21.27;;
75285;SDS011;63879;46.064;14.532;2022-10-18T21:00:33;34.42;;;21.35;;
75285;SDS011;63879;46.064;14.532;2022-10-18T21:02:59;39.20;;;23.75;;
75285;SDS011;63879;46.064;14.532;2022-10-18T21:05:24;33.10;;;21.13;;
75285;SDS011;63879;46.064;14.532;2022-10-18T21:07:50;29.88;;;20.48;;
75285;SDS011;63879;46.064;14.532;2022-10-18T21:10:15;32.57;;;21.37;;
75285;SDS011;63879;46.064;14.532;2022-10-18T21:12:41;31.05;;;20.77;;
75285;SDS011;63879;46.064;14.532;2022-10-18T21:15:06;33.90;;;21.33;;
75285;SDS011;63879;46.064;14.532;2022-10-18T21:17:32;31.75;;;19.42;;
75285;SDS011;63879;46.064;14.532;2022-10-18T21:19:57;29.50;;;19.30;;
75285;SDS011;63879;46.064;14.532;2022-10-18T21:22:23;36.28;;;21.20;;
75285;SDS011;63879;46.064;14.532;2022-10-18T21:24:49;37.38;;;22.15;;
75285;SDS011;63879;46.064;14.532;2022-10-18T21:27:14;32.13;;;20.27;;
75285;SDS011;63879;46.064;14.532;2022-10-18T21:29:40;32.30;;;20.58;;
75285;SDS011;63879;46.064;14.532;2022-10-18T21:32:05;35.88;;;21.75;;
75285;SDS011;63879;46.064;14.532;2022-10-18T21:34:31;34.17;;;20.40;;
75285;SDS011;63879;46.064;14.532;2022-10-18T21:36:56;38.30;;;22.55;;
75285;SDS011;63879;46.064;14.532;2022-10-18T21:39:22;37.75;;;22.23;;
75285;SDS011;63879;46.064;14.532;2022-10-18T21:41:48;31.85;;;21.75;;
75285;SDS011;63879;46.064;14.532;2022-10-18T21:44:13;33.88;;;22.33;;
75285;SDS011;63879;46.064;14.532;2022-10-18T21:46:39;39.47;;;26.15;;
75285;SDS011;63879;46.064;14.532;2022-10-18T21:49:07;35.03;;;22.58;;
75285;SDS011;63879;46.064;14.532;2022-10-18T21:51:33;35.15;;;23.13;;
75285;SDS011;63879;46.064;14.532;2022-10-18T21:53:59;43.30;;;28.00;;
75285;SDS011;63879;46.064;14.532;2022-10-18T21:56:26;38.38;;;24.25;;
75285;SDS011;63879;46.064;14.532;2022-10-18T21:58:52;44.67;;;27.40;;
